Time;durP1;ratioP1;P1;durP2;ratioP2;P2;SDS_P1;SDS_P2;PMS_P1;PMS_P2;Temp;Humidity;BMP_temperature;BMP_pressure;BME280_temperature;BME280_humidity;BME280_pressure;Samples;Min_cycle;Max_cycle;Signal;HPM_P1;HPM_P2
2023/01/09 00:00:36;;;;;;;5.00;1.30;;;;;;;10.71;65.85;99393.25;4983328;28;20030;-42
2023/01/09 00:03:02;;;;;;;5.18;1.40;;;;;;;10.51;66.35;99401.25;4981538;28;20510;-42
2023/01/09 00:05:27;;;;;;;9.55;1.40;;;;;;;10.26;67.07;99402.34;4984397;28;20041;-43
2023/01/09 00:07:53;;;;;;;5.95;1.33;;;;;;;10.44;67.18;99400.44;4981164;28;20109;-42
2023/01/09 00:10:18;;;;;;;5.75;1.40;;;;;;;10.33;67.17;99404.03;4984837;28;20035;-43
2023/01/09 00:12:43;;;;;;;6.63;1.40;;;;;;;10.38;67.14;99405.72;4984509;28;20030;-44
2023/01/09 00:15:10;;;;;;;3.95;1.30;;;;;;;10.00;68.34;99402.56;4982181;28;20288;-41
2023/01/09 00:17:35;;;;;;;3.75;1.30;;;;;;;10.43;67.22;99400.50;4985257;28;20503;-42
2023/01/09 00:20:00;;;;;;;4.40;1.30;;;;;;;9.99;68.52;99398.22;4982481;28;20130;-42
2023/01/09 00:22:26;;;;;;;4.68;1.30;;;;;;;10.14;68.02;99411.13;4987470;28;20034;-42
2023/01/09 00:24:51;;;;;;;4.00;1.30;;;;;;;10.14;67.87;99411.97;4984759;28;20060;-43
2023/01/09 00:27:17;;;;;;;5.72;1.40;;;;;;;10.45;66.68;99401.31;4988969;28;20143;-44
2023/01/09 00:29:44;;;;;;;5.30;1.40;;;;;;;10.17;68.30;99403.31;4988961;28;20033;-43
2023/01/09 00:32:11;;;;;;;3.67;1.13;;;;;;;10.19;68.13;99388.53;4982942;28;20117;-41
2023/01/09 00:34:37;;;;;;;5.93;1.40;;;;;;;10.33;67.56;99391.00;4986804;28;20038;-44
2023/01/09 00:37:10;;;;;;;4.70;1.33;;;;;;;10.18;68.11;99392.88;4982414;28;20490;-44
2023/01/09 00:39:36;;;;;;;5.95;1.52;;;;;;;10.10;68.72;99381.63;4986900;28;20125;-45
2023/01/09 00:42:01;;;;;;;5.60;1.50;;;;;;;10.19;68.43;99383.31;4982253;28;20068;-46
2023/01/09 00:44:38;;;;;;;5.63;1.30;;;;;;;10.13;68.02;99378.13;4987322;28;20046;-42
2023/01/09 00:47:15;;;;;;;5.68;1.25;;;;;;;10.09;68.65;99377.31;4980977;28;20045;-42
2023/01/09 00:49:42;;;;;;;6.53;1.70;;;;;;;9.99;68.88;99380.88;4984109;28;20035;-41
2023/01/09 00:52:10;;;;;;;5.28;1.52;;;;;;;10.23;67.69;99371.16;4979038;28;20035;-45
2023/01/09 00:54:36;;;;;;;4.15;1.58;;;;;;;9.93;68.99;99377.44;4983341;28;20046;-41
2023/01/09 00:57:02;;;;;;;5.47;1.60;;;;;;;10.13;68.27;99380.72;4980448;28;20058;-43
2023/01/09 00:59:27;;;;;;;5.63;1.63;;;;;;;10.05;68.45;99385.16;4983768;28;20057;-40
2023/01/09 01:01:53;;;;;;;6.95;1.65;;;;;;;10.16;68.46;99372.91;4980259;28;20031;-40
2023/01/09 01:09:46;;;;;;;6.68;1.70;;;;;;;10.07;67.40;99386.00;4985770;28;20046;-42
2023/01/09 01:12:12;;;;;;;3.47;1.60;;;;;;;10.09;67.58;99384.25;4981827;28;20038;-41
2023/01/09 01:14:37;;;;;;;4.13;1.70;;;;;;;10.06;68.34;99384.28;4990009;28;20030;-44
2023/01/09 01:17:03;;;;;;;6.40;1.70;;;;;;;10.24;68.54;99389.38;4987858;28;20034;-43
2023/01/09 01:19:29;;;;;;;4.05;1.73;;;;;;;10.33;68.81;99380.59;4992536;28;20085;-42
2023/01/09 01:21:55;;;;;;;5.93;1.60;;;;;;;10.22;68.67;99392.84;4988312;28;20029;-43
2023/01/09 01:24:20;;;;;;;11.20;1.70;;;;;;;10.50;68.10;99395.19;4993040;28;20054;-42
2023/01/09 01:26:46;;;;;;;4.85;1.70;;;;;;;10.39;68.39;99393.56;4992160;28;20046;-42
2023/01/09 01:29:12;;;;;;;5.32;1.77;;;;;;;10.46;67.60;99392.63;4985388;28;20030;-46
2023/01/09 01:31:37;;;;;;;5.93;1.58;;;;;;;10.57;66.94;99391.63;4987220;28;20030;-44
2023/01/09 01:34:03;;;;;;;5.38;1.70;;;;;;;10.47;67.22;99389.16;4983755;28;20035;-44
2023/01/09 01:36:28;;;;;;;4.97;1.60;;;;;;;10.55;66.87;99388.19;4987393;28;20570;-44
2023/01/09 01:38:54;;;;;;;5.15;1.92;;;;;;;10.41;67.13;99389.22;4984005;28;20509;-42
2023/01/09 01:41:28;;;;;;;8.18;1.90;;;;;;;10.54;66.76;99383.88;4987659;28;20145;-42
2023/01/09 01:44:32;;;;;;;7.55;1.70;;;;;;;10.34;67.68;99380.59;4982667;28;20042;-43
2023/01/09 01:46:57;;;;;;;4.95;1.70;;;;;;;10.30;67.73;99386.72;4975468;28;20041;-43
2023/01/09 01:49:23;;;;;;;4.68;1.80;;;;;;;10.11;68.58;99380.78;4987301;28;20034;-41
2023/01/09 01:51:52;;;;;;;4.45;1.80;;;;;;;10.16;68.04;99381.63;4982388;28;20034;-42
2023/01/09 01:54:23;;;;;;;7.15;2.10;;;;;;;10.07;68.70;99379.06;4987562;28;20038;-42
2023/01/09 01:56:55;;;;;;;6.30;2.40;;;;;;;10.21;67.87;99380.72;4983696;28;20065;-42
2023/01/09 01:59:27;;;;;;;7.20;2.30;;;;;;;10.12;68.54;99384.25;4986532;28;20042;-43
2023/01/09 02:01:56;;;;;;;7.45;2.40;;;;;;;10.04;68.82;99386.03;4982244;28;20030;-44
2023/01/09 02:04:22;;;;;;;5.97;2.63;;;;;;;10.27;67.73;99376.31;4986350;28;20054;-44
2023/01/09 02:06:50;;;;;;;5.72;2.50;;;;;;;10.22;67.67;99393.72;4982662;28;20038;-45
2023/01/09 02:09:18;;;;;;;9.30;2.50;;;;;;;10.26;67.66;99399.75;4986869;28;20133;-42
2023/01/09 02:11:51;;;;;;;8.07;2.38;;;;;;;10.38;68.09;99397.03;4984367;28;20088;-42
2023/01/09 02:14:19;;;;;;;5.97;2.47;;;;;;;10.39;67.70;99398.78;4984046;28;20503;-45
2023/01/09 02:16:59;;;;;;;5.70;2.38;;;;;;;10.42;67.31;99396.16;4987403;28;20037;-44
2023/01/09 02:19:40;;;;;;;5.60;2.45;;;;;;;10.15;68.19;99405.91;4983665;28;20117;-43
2023/01/09 02:22:11;;;;;;;7.35;2.38;;;;;;;10.46;67.76;99401.31;4985935;28;20057;-44
2023/01/09 02:25:01;;;;;;;7.43;2.53;;;;;;;10.51;67.42;99399.53;4990959;28;20091;-42
2023/01/09 02:27:44;;;;;;;5.70;2.22;;;;;;;10.54;67.53;99402.09;4981207;28;20030;-45
2023/01/09 02:30:20;;;;;;;9.15;2.50;;;;;;;10.67;66.60;99402.84;4983153;28;20026;-41
2023/01/09 02:33:21;;;;;;;8.07;2.50;;;;;;;10.55;67.00;99401.22;4986144;28;20093;-43
2023/01/09 02:35:59;;;;;;;7.53;2.42;;;;;;;10.47;66.95;99394.38;4978082;28;20104;-45
2023/01/09 02:38:33;;;;;;;8.75;2.45;;;;;;;10.57;66.35;99398.59;4982807;28;20033;-43
2023/01/09 02:41:10;;;;;;;5.25;2.53;;;;;;;10.42;66.97;99399.63;4982315;28;20072;-44
2023/01/09 02:43:35;;;;;;;6.17;2.50;;;;;;;10.29;67.10;99403.22;4986513;28;20035;-43
2023/01/09 02:46:00;;;;;;;7.88;2.80;;;;;;;10.45;66.52;99396.09;4982357;28;20414;-42
2023/01/09 02:48:26;;;;;;;10.20;2.67;;;;;;;10.33;67.06;99391.88;4986541;28;20109;-42
2023/01/09 02:51:23;;;;;;;6.60;2.67;;;;;;;10.22;67.44;99391.13;4984628;28;20692;-42
2023/01/09 02:54:03;;;;;;;8.00;2.78;;;;;;;10.34;67.00;99393.63;4977620;28;20033;-42
2023/01/09 02:56:54;;;;;;;8.63;2.72;;;;;;;10.27;67.68;99396.28;4985848;28;20030;-42
2023/01/09 02:59:31;;;;;;;9.52;3.30;;;;;;;10.29;67.36;99394.53;4982764;28;20038;-42
2023/01/09 03:02:34;;;;;;;6.47;2.55;;;;;;;10.24;67.27;99388.50;4981305;28;20038;-43
2023/01/09 03:05:20;;;;;;;6.50;2.67;;;;;;;10.34;67.30;99388.41;4982540;28;20407;-42
2023/01/09 03:07:57;;;;;;;9.32;3.00;;;;;;;10.03;67.88;99392.13;4985226;28;20049;-47
2023/01/09 03:10:56;;;;;;;7.78;2.55;;;;;;;9.95;68.51;99380.88;4981494;28;20570;-42
2023/01/09 03:13:25;;;;;;;8.00;2.65;;;;;;;10.16;67.19;99376.41;4978132;28;20039;-42
2023/01/09 03:15:54;;;;;;;9.88;2.80;;;;;;;9.94;68.17;99368.78;4982292;28;20384;-42
2023/01/09 03:18:23;;;;;;;9.10;2.70;;;;;;;10.01;67.65;99375.63;4985367;28;20066;-44
2023/01/09 03:20:49;;;;;;;9.20;2.92;;;;;;;9.82;68.38;99371.47;4981099;28;20041;-42
2023/01/09 03:23:14;;;;;;;8.02;2.90;;;;;;;9.93;68.13;99372.25;5006472;23;20046;-42
2023/01/09 03:25:39;;;;;;;11.38;3.13;;;;;;;9.76;69.04;99372.34;4984044;28;20034;-41
2023/01/09 03:28:07;;;;;;;9.68;3.10;;;;;;;9.94;68.02;99367.00;4982298;28;20042;-42
2023/01/09 03:30:35;;;;;;;7.25;3.15;;;;;;;10.06;68.14;99371.28;4985939;28;20037;-46
2023/01/09 03:33:01;;;;;;;9.27;2.90;;;;;;;10.30;67.16;99367.63;4983157;28;20057;-48
2023/01/09 03:35:27;;;;;;;8.55;2.85;;;;;;;10.09;67.54;99366.88;4990982;28;20038;-43
2023/01/09 03:37:52;;;;;;;11.18;2.90;;;;;;;10.03;67.72;99368.69;4989552;28;20053;-42
2023/01/09 03:40:19;;;;;;;10.95;2.50;;;;;;;10.20;67.02;99376.38;4984302;28;20038;-42
2023/01/09 03:42:44;;;;;;;8.05;2.70;;;;;;;10.31;67.10;99378.00;4983386;28;20527;-42
2023/01/09 03:45:10;;;;;;;5.88;2.35;;;;;;;10.34;66.69;99377.13;4979677;28;20166;-41
2023/01/09 03:47:35;;;;;;;4.30;1.95;;;;;;;10.30;67.00;99372.81;4983388;28;20030;-45
2023/01/09 03:50:01;;;;;;;6.43;2.20;;;;;;;10.07;67.44;99375.56;4980542;28;20045;-41
2023/01/09 03:52:26;;;;;;;10.68;2.35;;;;;;;10.30;66.98;99381.50;4984840;28;20034;-48
2023/01/09 03:54:51;;;;;;;9.52;2.40;;;;;;;10.24;67.64;99383.31;4983401;28;20088;-48
2023/01/09 03:57:17;;;;;;;6.47;2.13;;;;;;;10.46;66.34;99382.22;4987684;28;20030;-43
2023/01/09 03:59:42;;;;;;;8.27;2.10;;;;;;;10.52;66.74;99379.53;4986765;28;20121;-44
2023/01/09 04:02:07;;;;;;;7.32;2.20;;;;;;;10.40;67.45;99384.88;4981911;28;20534;-43
2023/01/09 04:04:33;;;;;;;5.57;2.20;;;;;;;10.36;67.00;99378.84;4983011;28;20093;-44
2023/01/09 04:06:58;;;;;;;7.55;2.28;;;;;;;10.25;67.97;99370.25;4979523;28;20039;-42
2023/01/09 04:09:23;;;;;;;6.57;2.15;;;;;;;10.35;67.71;99377.09;4983550;28;20766;-43
2023/01/09 04:11:48;;;;;;;5.35;2.10;;;;;;;10.36;68.05;99370.16;4978905;28;20041;-44
2023/01/09 04:14:14;;;;;;;9.43;2.47;;;;;;;10.35;68.24;99360.63;4982894;28;20058;-41
2023/01/09 04:16:39;;;;;;;8.75;2.13;;;;;;;10.41;67.89;99355.34;4982889;28;20050;-44
2023/01/09 04:19:04;;;;;;;6.35;2.17;;;;;;;10.18;68.62;99356.41;4978088;28;20495;-43
2023/01/09 04:21:30;;;;;;;6.38;2.22;;;;;;;10.18;68.50;99357.31;4982421;28;20045;-41
2023/01/09 04:23:55;;;;;;;8.82;2.58;;;;;;;10.13;68.44;99352.97;4979379;28;20034;-42
2023/01/09 04:26:20;;;;;;;5.95;2.20;;;;;;;10.27;68.24;99354.59;4983289;28;20121;-41
2023/01/09 04:28:46;;;;;;;7.50;2.30;;;;;;;10.33;68.19;99347.59;4983053;28;20041;-42
2023/01/09 04:31:11;;;;;;;4.72;2.10;;;;;;;10.30;68.36;99346.78;4978378;28;20076;-44
2023/01/09 04:33:37;;;;;;;8.10;2.47;;;;;;;10.33;67.89;99344.13;4982967;28;20175;-42
2023/01/09 04:36:02;;;;;;;5.05;2.00;;;;;;;10.27;67.85;99338.97;4979017;28;20534;-44
2023/01/09 04:38:27;;;;;;;4.40;2.08;;;;;;;10.54;67.29;99346.53;4982995;28;20038;-43
2023/01/09 04:40:53;;;;;;;8.65;2.10;;;;;;;10.29;68.19;99345.91;4978839;28;20030;-42
2023/01/09 04:43:18;;;;;;;7.00;2.25;;;;;;;10.56;67.12;99339.53;4982892;28;20355;-45
2023/01/09 04:45:44;;;;;;;5.93;2.20;;;;;;;10.50;67.06;99337.00;4982728;28;20499;-44
2023/01/09 04:48:09;;;;;;;4.70;1.95;;;;;;;10.56;66.77;99344.75;4979369;28;20092;-43
2023/01/09 04:50:34;;;;;;;5.47;1.92;;;;;;;10.51;67.15;99344.81;4982343;28;20121;-43
2023/01/09 04:53:00;;;;;;;4.90;2.00;;;;;;;10.61;66.43;99340.38;4983003;28;20038;-43
2023/01/09 04:55:25;;;;;;;4.70;1.90;;;;;;;10.61;66.59;99347.31;4986753;28;20097;-43
2023/01/09 04:57:51;;;;;;;6.75;1.90;;;;;;;10.58;66.26;99341.25;4982951;28;20100;-45
2023/01/09 05:00:16;;;;;;;5.65;2.20;;;;;;;10.52;66.61;99343.94;4985707;28;20030;-43
2023/01/09 05:02:42;;;;;;;5.85;2.13;;;;;;;10.87;65.93;99334.81;4987609;28;20113;-42
2023/01/09 05:05:09;;;;;;;7.13;2.10;;;;;;;10.65;65.82;99329.03;4985352;28;20713;-41
2023/01/09 05:07:35;;;;;;;9.35;2.88;;;;;;;10.67;65.71;99323.78;4989732;28;20156;-42
2023/01/09 05:10:00;;;;;;;5.68;2.28;;;;;;;10.87;65.67;99333.09;4986680;28;20431;-44
2023/01/09 05:12:26;;;;;;;5.97;2.17;;;;;;;10.77;66.15;99328.88;4990593;28;20491;-45
2023/01/09 05:14:51;;;;;;;7.45;2.40;;;;;;;10.63;66.82;99333.38;4986614;28;20126;-43
2023/01/09 05:17:16;;;;;;;6.45;2.65;;;;;;;10.68;67.12;99326.38;4988535;28;20050;-41
2023/01/09 05:19:44;;;;;;;8.55;3.13;;;;;;;10.46;68.04;99324.88;4988387;28;20399;-41
2023/01/09 05:22:10;;;;;;;10.80;2.88;;;;;;;10.71;67.22;99318.53;4981775;28;20041;-40
2023/01/09 05:24:36;;;;;;;7.80;2.83;;;;;;;10.55;67.81;99314.38;4985738;28;20052;-42
2023/01/09 05:27:01;;;;;;;5.10;2.72;;;;;;;10.76;67.51;99321.06;4983026;28;20038;-42
2023/01/09 05:29:27;;;;;;;7.18;2.80;;;;;;;10.79;67.38;99316.69;4986126;28;20034;-41
2023/01/09 05:31:52;;;;;;;6.93;3.03;;;;;;;10.16;69.89;99326.94;4981684;28;20165;-41
2023/01/09 05:34:17;;;;;;;6.78;3.28;;;;;;;10.44;68.93;99322.28;4985673;28;20109;-45
2023/01/09 05:36:43;;;;;;;8.18;3.03;;;;;;;10.53;68.77;99321.34;4985574;28;20034;-42
2023/01/09 05:39:08;;;;;;;8.20;3.33;;;;;;;10.62;68.25;99322.97;4981596;28;20081;-45
2023/01/09 05:41:34;;;;;;;7.95;3.08;;;;;;;10.57;68.71;99313.47;4984862;28;20053;-41
2023/01/09 05:43:59;;;;;;;9.05;3.60;;;;;;;10.60;69.02;99309.97;4981357;28;20543;-41
2023/01/09 05:46:24;;;;;;;8.82;3.40;;;;;;;10.57;69.25;99310.84;4985799;28;20038;-40
2023/01/09 05:48:50;;;;;;;8.07;3.33;;;;;;;10.44;69.47;99309.25;4981771;28;20380;-45
2023/01/09 05:51:15;;;;;;;7.53;3.28;;;;;;;10.49;69.53;99307.47;4985510;28;20117;-43
2023/01/09 05:53:40;;;;;;;7.55;3.10;;;;;;;10.56;69.63;99310.88;4986584;28;20038;-44
2023/01/09 05:56:06;;;;;;;10.35;3.25;;;;;;;10.17;70.35;99301.75;4982735;28;20158;-42
2023/01/09 05:58:31;;;;;;;7.65;3.15;;;;;;;10.51;70.14;99307.47;4986547;28;20032;-43
2023/01/09 06:00:58;;;;;;;9.63;3.40;;;;;;;10.39;70.41;99302.38;4981568;28;20073;-43
2023/01/09 06:03:23;;;;;;;9.73;2.90;;;;;;;10.50;70.09;99303.97;4984465;28;20026;-41
2023/01/09 06:05:50;;;;;;;9.27;3.30;;;;;;;10.45;70.10;99294.50;4981344;28;20046;-43
2023/01/09 06:08:16;;;;;;;7.57;3.47;;;;;;;10.26;70.86;99301.66;4984973;28;20042;-41
2023/01/09 06:10:41;;;;;;;7.68;3.20;;;;;;;10.18;71.76;99296.50;4984436;28;20030;-43
2023/01/09 06:13:06;;;;;;;9.20;3.25;;;;;;;10.37;71.20;99296.34;4981220;28;20088;-43
2023/01/09 06:15:31;;;;;;;8.60;3.65;;;;;;;10.47;70.58;99293.63;4984970;28;20045;-42
2023/01/09 06:17:57;;;;;;;13.57;3.67;;;;;;;10.44;71.16;99296.25;4981478;28;20077;-42
2023/01/09 06:20:22;;;;;;;9.68;3.20;;;;;;;10.49;70.80;99296.22;4984269;28;20057;-43
2023/01/09 06:22:50;;;;;;;9.77;3.00;;;;;;;10.67;69.84;99298.59;4980750;28;20049;-46
2023/01/09 06:25:16;;;;;;;9.60;3.08;;;;;;;10.39;71.18;99292.81;4984665;28;20043;-46
2023/01/09 06:27:41;;;;;;;7.45;3.30;;;;;;;10.44;70.95;99298.84;4985435;28;20022;-43
2023/01/09 06:30:07;;;;;;;7.47;3.42;;;;;;;10.43;71.21;99306.69;4981529;28;20104;-44
2023/01/09 06:32:33;;;;;;;9.20;3.30;;;;;;;10.27;71.82;99289.50;4984121;28;20042;-44
2023/01/09 06:34:58;;;;;;;7.57;3.15;;;;;;;10.34;71.86;99293.75;4981312;28;20465;-43
2023/01/09 06:37:23;;;;;;;10.55;3.67;;;;;;;10.37;71.85;99299.78;4984870;28;20108;-42
2023/01/09 06:39:48;;;;;;;9.50;3.53;;;;;;;10.47;71.57;99297.97;4980814;28;20034;-46
2023/01/09 06:42:14;;;;;;;10.38;4.00;;;;;;;10.00;73.22;99306.25;4983712;28;20121;-41
2023/01/09 06:44:39;;;;;;;9.80;3.80;;;;;;;10.27;72.59;99308.59;4984500;28;20126;-43
2023/01/09 06:47:04;;;;;;;8.30;3.90;;;;;;;10.55;72.05;99302.19;4980804;28;20046;-39
2023/01/09 06:49:30;;;;;;;7.90;3.92;;;;;;;10.51;71.71;99307.47;4984501;28;20073;-42
2023/01/09 06:51:55;;;;;;;7.72;3.78;;;;;;;10.39;72.55;99318.88;4979725;28;20030;-44
2023/01/09 06:54:21;;;;;;;8.50;3.30;;;;;;;10.43;72.60;99314.50;4984070;28;20534;-45
2023/01/09 06:56:46;;;;;;;8.30;2.88;;;;;;;10.31;72.87;99319.81;4983543;28;20030;-44
2023/01/09 06:59:12;;;;;;;9.35;2.80;;;;;;;10.56;71.97;99321.28;4980628;28;20093;-43
2023/01/09 07:01:40;;;;;;;5.78;2.35;;;;;;;10.18;74.25;99327.75;4983324;28;20088;-43
2023/01/09 07:04:06;;;;;;;6.72;2.28;;;;;;;10.34;73.68;99335.44;4980068;28;20046;-42
2023/01/09 07:06:32;;;;;;;7.60;2.10;;;;;;;10.21;73.32;99334.69;4984024;28;20121;-41
2023/01/09 07:08:57;;;;;;;6.80;1.40;;;;;;;10.26;73.91;99335.50;4980240;28;20379;-42
2023/01/09 07:11:23;;;;;;;7.95;1.38;;;;;;;10.11;73.87;99331.28;4983414;28;20037;-46
2023/01/09 07:13:48;;;;;;;5.82;1.33;;;;;;;10.24;74.16;99345.09;4980140;28;20057;-41
2023/01/09 07:16:14;;;;;;;4.60;1.00;;;;;;;10.05;74.30;99357.38;4983606;28;20038;-43
2023/01/09 07:18:39;;;;;;;4.30;0.95;;;;;;;10.26;74.14;99356.34;4983943;28;20022;-43
2023/01/09 07:21:05;;;;;;;4.85;0.77;;;;;;;10.24;73.51;99365.94;4978128;28;20069;-45
2023/01/09 07:23:31;;;;;;;3.35;0.85;;;;;;;10.27;73.04;99372.84;4984085;28;20039;-44
2023/01/09 07:25:57;;;;;;;3.50;0.60;;;;;;;9.92;74.52;99384.41;4980251;28;20030;-42
2023/01/09 07:28:22;;;;;;;7.55;0.82;;;;;;;9.99;73.78;99391.28;4982478;28;20045;-41
2023/01/09 07:30:47;;;;;;;4.53;0.73;;;;;;;10.11;74.08;99392.94;4979565;28;20022;-44
2023/01/09 07:33:13;;;;;;;4.00;0.88;;;;;;;10.22;73.36;99403.28;4984052;28;20034;-43
2023/01/09 07:35:38;;;;;;;6.22;0.90;;;;;;;9.91;73.58;99410.44;4984352;28;20447;-43
2023/01/09 07:38:03;;;;;;;4.35;0.70;;;;;;;9.90;73.50;99411.31;4980635;28;20119;-43
2023/01/09 07:40:29;;;;;;;9.13;0.80;;;;;;;10.05;73.07;99421.63;4983361;28;20038;-42
2023/01/09 07:42:54;;;;;;;7.70;0.90;;;;;;;9.95;74.06;99426.00;4980759;28;20038;-44
2023/01/09 07:45:20;;;;;;;4.00;0.60;;;;;;;10.16;72.73;99432.81;4983485;28;20042;-41
2023/01/09 07:47:45;;;;;;;5.32;0.60;;;;;;;10.56;71.80;99436.81;4983148;28;20033;-42
2023/01/09 07:50:10;;;;;;;6.43;0.88;;;;;;;9.99;73.21;99452.91;4979512;28;20034;-45
2023/01/09 07:52:36;;;;;;;4.60;0.70;;;;;;;10.42;72.12;99456.06;4982955;28;20042;-42
2023/01/09 07:55:02;;;;;;;4.80;0.68;;;;;;;10.64;71.51;99465.41;4979613;28;20066;-42
2023/01/09 07:57:29;;;;;;;4.63;0.80;;;;;;;10.31;72.56;99471.78;4983052;28;20078;-42
2023/01/09 07:59:54;;;;;;;4.40;0.88;;;;;;;10.28;72.71;99478.75;4979455;28;20491;-42
2023/01/09 08:02:20;;;;;;;4.22;0.60;;;;;;;10.18;73.03;99491.00;4979897;28;20030;-42
2023/01/09 08:04:45;;;;;;;6.85;0.75;;;;;;;10.27;72.93;99495.25;4982476;28;20047;-46
2023/01/09 08:07:11;;;;;;;8.27;1.08;;;;;;;10.46;73.00;99510.75;4980709;28;20134;-43
2023/01/09 08:09:36;;;;;;;5.88;1.00;;;;;;;10.41;72.37;99509.91;4985781;28;20114;-38
2023/01/09 08:12:03;;;;;;;4.22;0.80;;;;;;;10.42;73.45;99516.88;4981563;28;20196;-45
2023/01/09 08:14:28;;;;;;;9.77;0.95;;;;;;;10.69;72.44;99518.34;4986016;28;20049;-44
2023/01/09 08:16:53;;;;;;;6.93;1.00;;;;;;;10.44;74.00;99530.72;4982457;28;20027;-42
2023/01/09 08:19:19;;;;;;;5.57;0.88;;;;;;;10.69;73.28;99531.41;4985572;28;20042;-43
2023/01/09 08:21:44;;;;;;;4.35;0.90;;;;;;;10.50;74.26;99546.31;4984732;28;20061;-44
2023/01/09 08:24:10;;;;;;;8.57;1.40;;;;;;;10.43;74.40;99542.00;4980616;28;20125;-43
2023/01/09 08:26:35;;;;;;;6.28;1.20;;;;;;;10.41;74.59;99548.13;4985455;28;20026;-43
2023/01/09 08:29:00;;;;;;;8.95;1.70;;;;;;;10.46;73.83;99565.47;4984575;28;20154;-43
2023/01/09 08:31:25;;;;;;;6.70;1.30;;;;;;;10.75;73.20;99556.53;4986572;28;20697;-43
2023/01/09 08:33:51;;;;;;;7.53;1.42;;;;;;;10.48;73.28;99563.72;4983234;28;20042;-46
2023/01/09 08:36:16;;;;;;;9.32;1.50;;;;;;;10.46;73.48;99580.22;4987247;28;20034;-44
2023/01/09 08:38:41;;;;;;;12.98;1.73;;;;;;;10.45;73.31;99579.34;4987092;28;20042;-44
2023/01/09 08:49:19;;;;;;;9.80;1.80;;;;;;;10.95;71.20;99597.22;4983097;28;20057;-44
2023/01/09 08:51:44;;;;;;;10.35;1.80;;;;;;;11.03;70.76;99611.94;4986404;28;20417;-43
2023/01/09 08:54:10;;;;;;;9.10;1.65;;;;;;;11.00;70.45;99610.22;4982686;28;20081;-44
2023/01/09 08:56:35;;;;;;;9.30;1.88;;;;;;;11.12;70.30;99620.53;4987263;28;20034;-42
2023/01/09 08:59:00;;;;;;;16.45;2.10;;;;;;;10.82;71.47;99624.28;4983831;28;20042;-43
2023/01/09 09:01:25;;;;;;;14.38;1.92;;;;;;;10.70;71.47;99633.91;4987390;28;20455;-42
2023/01/09 09:03:51;;;;;;;11.63;2.00;;;;;;;10.77;71.22;99641.69;4984069;28;20266;-44
2023/01/09 09:06:16;;;;;;;10.55;1.95;;;;;;;11.03;70.56;99638.03;4988376;28;20034;-44
2023/01/09 09:08:41;;;;;;;10.10;2.15;;;;;;;10.90;70.96;99643.34;4988739;28;20396;-42
2023/01/09 09:11:07;;;;;;;15.18;2.40;;;;;;;10.96;70.41;99645.91;4982157;28;20058;-45
2023/01/09 09:13:32;;;;;;;8.68;1.90;;;;;;;11.01;70.20;99656.28;4987138;28;20037;-45
2023/01/09 09:15:57;;;;;;;14.77;2.00;;;;;;;11.28;69.59;99658.66;4983154;28;20061;-41
2023/01/09 09:18:23;;;;;;;14.38;1.90;;;;;;;11.07;69.84;99657.97;4986381;28;20487;-42
2023/01/09 09:20:48;;;;;;;6.72;1.60;;;;;;;11.09;68.84;99666.66;4981628;28;20062;-42
2023/01/09 09:23:13;;;;;;;8.40;1.48;;;;;;;11.32;67.43;99672.53;5001537;23;24418;-42
2023/01/09 09:25:38;;;;;;;12.55;1.90;;;;;;;11.25;66.54;99676.94;4989427;28;20065;-38
2023/01/09 09:28:04;;;;;;;15.68;2.60;;;;;;;11.53;65.72;99684.53;4985642;28;20034;-43
2023/01/09 09:30:30;;;;;;;10.02;1.48;;;;;;;11.48;65.96;99681.97;4988053;28;20111;-39
2023/01/09 09:32:55;;;;;;;10.13;1.60;;;;;;;11.14;67.09;99689.22;4984583;28;20583;-39
2023/01/09 09:35:21;;;;;;;5.93;1.10;;;;;;;11.35;67.17;99696.84;4987776;28;20034;-38
2023/01/09 09:37:57;;;;;;;10.77;1.63;;;;;;;11.19;68.47;99705.69;4986917;28;20137;-40
2023/01/09 09:40:28;;;;;;;10.30;1.60;;;;;;;10.96;69.62;99705.00;4981846;28;20048;-36
2023/01/09 09:46:19;;;;;;;9.05;1.35;;;;;;;10.41;71.95;99714.88;4981983;28;21806;-41
2023/01/09 09:48:56;;;;;;;9.48;1.50;;;;;;;10.77;71.44;99719.03;4986907;28;20042;-40
2023/01/09 09:51:41;;;;;;;8.55;1.75;;;;;;;10.79;71.51;99715.56;4982165;28;20685;-42
2023/01/09 09:54:13;;;;;;;9.85;1.60;;;;;;;10.75;71.17;99736.41;4981470;28;20042;-45
2023/01/09 09:56:48;;;;;;;7.93;1.42;;;;;;;11.23;70.17;99735.22;4985351;28;20117;-39
2023/01/09 09:59:17;;;;;;;10.13;1.60;;;;;;;10.80;71.43;99740.72;4982042;28;20030;-43
2023/01/09 10:02:14;;;;;;;7.20;1.58;;;;;;;11.02;70.68;99744.09;4985734;28;20041;-41
2023/01/09 10:04:44;;;;;;;11.85;1.90;;;;;;;11.09;70.42;99764.03;4981080;28;20038;-41
2023/01/09 10:07:22;;;;;;;12.80;1.83;;;;;;;11.14;70.66;99757.03;4982597;28;20030;-40
2023/01/09 10:09:53;;;;;;;8.02;1.50;;;;;;;11.39;68.88;99771.66;4982230;28;20049;-42
2023/01/09 10:12:28;;;;;;;9.05;1.70;;;;;;;11.74;68.75;99773.13;4984595;28;20407;-39
2023/01/09 10:14:56;;;;;;;8.65;1.70;;;;;;;11.05;69.20;99779.69;4981943;28;20038;-39
2023/01/09 10:17:32;;;;;;;13.80;2.03;;;;;;;11.24;69.35;99778.69;4986319;28;20038;-42
2023/01/09 10:20:31;;;;;;;12.77;1.70;;;;;;;11.60;68.09;99785.38;4981937;28;20039;-40
2023/01/09 10:23:15;;;;;;;11.48;1.73;;;;;;;11.28;68.76;99791.72;4981782;28;20064;-40
2023/01/09 10:25:49;;;;;;;12.82;1.90;;;;;;;11.47;68.24;99802.88;4985863;28;20331;-42
2023/01/09 10:28:36;;;;;;;14.40;2.10;;;;;;;11.30;68.86;99812.59;4983789;28;20045;-39
2023/01/09 10:31:26;;;;;;;10.90;1.70;;;;;;;11.38;68.29;99816.00;4985160;28;20027;-39
2023/01/09 10:34:36;;;;;;;10.20;1.92;;;;;;;11.28;68.69;99823.03;4985355;28;20041;-39
2023/01/09 10:37:22;;;;;;;13.48;1.98;;;;;;;11.50;68.53;99818.53;4985804;28;20049;-43
2023/01/09 10:39:54;;;;;;;12.23;2.08;;;;;;;11.54;67.43;99825.47;4985359;28;20130;-41
2023/01/09 10:42:29;;;;;;;12.90;2.17;;;;;;;11.68;67.32;99831.47;4988926;28;20034;-42
2023/01/09 10:45:21;;;;;;;7.63;1.73;;;;;;;11.87;66.51;99834.81;4980833;28;20192;-40
2023/01/09 10:47:47;;;;;;;12.85;1.98;;;;;;;11.40;67.49;99835.16;4984978;28;20037;-41
2023/01/09 10:50:22;;;;;;;8.43;2.00;;;;;;;11.44;68.23;99838.59;4980472;28;20522;-39
2023/01/09 10:52:50;;;;;;;9.55;2.00;;;;;;;11.60;67.48;99842.81;4981055;28;20586;-42
2023/01/09 10:55:18;;;;;;;10.05;1.80;;;;;;;11.40;67.61;99848.19;4984881;28;20038;-42
2023/01/09 10:57:48;;;;;;;10.23;1.75;;;;;;;11.43;67.86;99855.13;4983325;28;20030;-43
2023/01/09 11:00:17;;;;;;;7.03;1.45;;;;;;;11.45;67.78;99856.84;4980765;28;20339;-39
2023/01/09 11:02:42;;;;;;;9.52;1.60;;;;;;;11.40;67.66;99859.47;4984547;28;20554;-42
2023/01/09 11:05:12;;;;;;;12.13;1.98;;;;;;;11.37;67.88;99856.03;4980400;28;20034;-40
2023/01/09 11:07:43;;;;;;;15.02;2.50;;;;;;;11.05;68.47;99857.94;4984236;28;20042;-38
2023/01/09 11:10:10;;;;;;;10.02;1.80;;;;;;;11.32;67.79;99874.34;4981210;28;20498;-40
2023/01/09 11:12:37;;;;;;;10.48;2.20;;;;;;;11.22;68.69;99871.78;4983923;28;20030;-39
2023/01/09 11:15:15;;;;;;;12.77;1.88;;;;;;;11.61;67.84;99873.28;4981038;28;20030;-41
2023/01/09 11:17:44;;;;;;;14.15;2.00;;;;;;;11.82;66.67;99864.47;4984606;28;20038;-38
2023/01/09 11:20:30;;;;;;;12.57;2.22;;;;;;;11.56;66.69;99867.22;4981297;28;20039;-36
2023/01/09 11:22:57;;;;;;;9.68;1.75;;;;;;;11.92;66.61;99874.81;4979334;28;20478;-41
2023/01/09 11:25:26;;;;;;;15.38;1.92;;;;;;;11.79;65.84;99865.34;4984919;28;20030;-40
2023/01/09 11:28:00;;;;;;;13.27;1.83;;;;;;;12.03;65.68;99877.34;4981978;28;20375;-40
2023/01/09 11:30:26;;;;;;;9.02;1.90;;;;;;;11.57;66.77;99887.22;4988641;28;20057;-40
2023/01/09 11:32:54;;;;;;;10.52;1.80;;;;;;;11.81;65.76;99883.63;4980355;28;20112;-39
2023/01/09 11:35:31;;;;;;;10.05;1.73;;;;;;;11.76;66.52;99894.97;4987382;28;20061;-41
2023/01/09 11:38:04;;;;;;;9.88;1.73;;;;;;;11.89;65.91;99890.53;4984212;28;20034;-40
2023/01/09 11:40:55;;;;;;;13.75;2.00;;;;;;;11.98;66.32;99893.06;4986561;28;20039;-40
2023/01/09 11:43:39;;;;;;;11.27;1.95;;;;;;;11.62;66.62;99896.75;4981183;28;20046;-39
2023/01/09 11:46:30;;;;;;;11.90;1.77;;;;;;;11.88;65.62;99914.91;4982458;28;20038;-39
2023/01/09 11:48:57;;;;;;;14.38;1.90;;;;;;;11.91;66.20;99904.41;4980628;28;20041;-45
2023/01/09 11:51:33;;;;;;;13.00;1.92;;;;;;;11.48;66.12;99915.97;4984815;28;20395;-42
2023/01/09 11:54:11;;;;;;;7.60;1.50;;;;;;;11.66;66.34;99919.34;4980429;28;20085;-39
2023/01/09 11:56:37;;;;;;;13.82;2.20;;;;;;;11.47;66.45;99924.69;4984935;28;20081;-42